Time;durP1;ratioP1;P1;durP2;ratioP2;P2;SDS_P1;SDS_P2;PMS_P1;PMS_P2;Temp;Humidity;BMP_temperature;BMP_pressure;BME280_temperature;BME280_humidity;BME280_pressure;Samples;Min_cycle;Max_cycle;Signal;HPM_P1;HPM_P2
2021/09/23 00:01:38;;;;;;;3.73;2.10;;;11.00;99.90;;;;;;4882591;29;20510;-76
2021/09/23 00:04:20;;;;;;;3.80;0.93;;;11.00;99.90;;;;;;4886899;29;20415;-76
2021/09/23 00:06:58;;;;;;;0.90;0.70;;;11.00;99.90;;;;;;4886539;29;20448;-76
2021/09/23 00:09:36;;;;;;;0.80;0.50;;;10.90;99.90;;;;;;4881015;29;20407;-77
2021/09/23 00:12:09;;;;;;;0.80;0.50;;;10.90;99.90;;;;;;4879655;29;20427;-76
2021/09/23 00:14:47;;;;;;;0.83;0.57;;;10.90;99.90;;;;;;4879618;29;20423;-76
2021/09/23 00:17:17;;;;;;;1.13;0.67;;;11.00;99.90;;;;;;4879107;29;20469;-74
2021/09/23 00:19:50;;;;;;;1.63;0.80;;;11.00;99.90;;;;;;4877955;29;20453;-76
2021/09/23 00:22:25;;;;;;;1.87;0.73;;;10.90;99.90;;;;;;4879028;29;20470;-77
2021/09/23 00:25:14;;;;;;;0.80;0.50;;;10.90;99.90;;;;;;4879474;29;20892;-77
2021/09/23 00:27:46;;;;;;;1.13;0.80;;;10.90;99.90;;;;;;4879160;29;20495;-77
2021/09/23 00:30:18;;;;;;;1.80;1.70;;;10.90;99.90;;;;;;4877464;29;20463;-75
2021/09/23 00:32:56;;;;;;;0.80;0.50;;;11.00;99.90;;;;;;4877800;29;20450;-76
2021/09/23 00:35:26;;;;;;;0.80;0.50;;;11.00;99.90;;;;;;4878981;29;20390;-76
2021/09/23 00:38:00;;;;;;;1.07;0.63;;;11.00;99.90;;;;;;4878673;29;20877;-75
2021/09/23 00:40:34;;;;;;;2.70;1.27;;;11.00;99.90;;;;;;4878474;29;20481;-77
2021/09/23 00:43:09;;;;;;;0.80;0.50;;;11.00;99.90;;;;;;4878665;29;20870;-76
2021/09/23 00:45:37;;;;;;;0.80;0.50;;;11.00;99.90;;;;;;4878982;29;20770;-76
2021/09/23 00:48:09;;;;;;;1.13;0.90;;;11.00;99.90;;;;;;4878487;29;20435;-77
2021/09/23 00:50:40;;;;;;;0.80;0.50;;;11.00;99.90;;;;;;4877165;29;20843;-77
2021/09/23 00:53:14;;;;;;;0.80;0.50;;;11.00;99.90;;;;;;4877687;29;20421;-76
2021/09/23 00:55:43;;;;;;;2.23;1.50;;;11.00;99.90;;;;;;4879408;29;20435;-77
2021/09/23 00:58:12;;;;;;;2.33;1.70;;;10.90;99.90;;;;;;4880019;29;20519;-77
2021/09/23 01:00:44;;;;;;;1.10;0.93;;;11.00;99.90;;;;;;4879288;29;20502;-76
2021/09/23 01:03:18;;;;;;;1.20;0.73;;;11.00;99.90;;;;;;4879916;29;20478;-76
2021/09/23 01:05:50;;;;;;;1.20;0.80;;;11.00;99.90;;;;;;4878465;29;20425;-76
2021/09/23 01:08:18;;;;;;;0.90;0.63;;;11.00;99.90;;;;;;4879622;29;20431;-77
2021/09/23 01:10:46;;;;;;;0.80;0.50;;;11.00;99.90;;;;;;4879127;29;20534;-77
2021/09/23 01:13:15;;;;;;;0.80;0.50;;;11.00;99.90;;;;;;4880490;29;20741;-78
2021/09/23 01:16:03;;;;;;;0.90;0.60;;;11.00;99.90;;;;;;4879887;29;20505;-77
2021/09/23 01:19:00;;;;;;;1.33;0.90;;;11.00;99.90;;;;;;4879541;29;20447;-77
2021/09/23 01:21:33;;;;;;;0.80;0.50;;;11.00;99.90;;;;;;4905271;23;20486;-76
2021/09/23 01:24:04;;;;;;;2.50;0.90;;;11.00;99.90;;;;;;4895355;29;20862;-76
2021/09/23 01:26:32;;;;;;;1.30;0.70;;;11.00;99.90;;;;;;4895533;29;20448;-76
2021/09/23 01:29:11;;;;;;;0.80;0.50;;;11.00;99.90;;;;;;4895595;29;20513;-76
2021/09/23 01:31:48;;;;;;;1.33;0.80;;;11.00;99.90;;;;;;4895309;29;20462;-76
2021/09/23 01:34:17;;;;;;;1.93;1.10;;;11.00;99.90;;;;;;4895521;29;20503;-75
2021/09/23 01:36:47;;;;;;;1.17;0.93;;;11.00;99.90;;;;;;4896956;29;20502;-75
2021/09/23 01:39:18;;;;;;;1.80;1.23;;;11.10;99.90;;;;;;4899198;29;20415;-75
2021/09/23 01:41:46;;;;;;;1.13;1.03;;;11.10;99.90;;;;;;4900752;29;20475;-75
2021/09/23 01:44:18;;;;;;;2.03;1.83;;;11.10;99.90;;;;;;4901244;29;20481;-75
2021/09/23 01:46:46;;;;;;;2.47;1.47;;;11.10;99.90;;;;;;4901013;29;20449;-75
2021/09/23 01:49:21;;;;;;;1.30;1.10;;;11.10;99.90;;;;;;4905501;29;20449;-75
2021/09/23 01:51:52;;;;;;;0.80;0.50;;;11.10;99.90;;;;;;4903993;29;20532;-76
2021/09/23 01:54:22;;;;;;;1.73;1.03;;;11.10;99.90;;;;;;4903330;29;20884;-75
2021/09/23 01:56:53;;;;;;;0.80;0.50;;;11.10;99.90;;;;;;4901515;29;20439;-74
2021/09/23 01:59:24;;;;;;;1.03;0.80;;;11.10;99.90;;;;;;4902032;29;20409;-76
2021/09/23 02:01:58;;;;;;;0.80;0.50;;;11.10;99.90;;;;;;4903597;29;20479;-76
2021/09/23 02:04:27;;;;;;;2.13;1.53;;;11.10;99.90;;;;;;4899914;29;20450;-75
2021/09/23 02:06:56;;;;;;;0.90;0.70;;;11.10;99.90;;;;;;4894670;29;20502;-75
2021/09/23 02:09:25;;;;;;;0.80;0.60;;;11.00;99.90;;;;;;4894732;29;20470;-76
2021/09/23 02:11:53;;;;;;;0.80;0.60;;;11.00;99.90;;;;;;4896931;29;20480;-75
2021/09/23 02:14:21;;;;;;;2.83;2.70;;;11.00;99.90;;;;;;4894914;29;20444;-76
2021/09/23 02:16:49;;;;;;;1.20;0.90;;;11.00;99.90;;;;;;4895140;29;20449;-76
2021/09/23 02:19:36;;;;;;;1.37;0.70;;;11.00;99.90;;;;;;4895076;29;20767;-76
2021/09/23 02:22:06;;;;;;;1.23;1.03;;;10.90;99.90;;;;;;4894832;29;20485;-76
2021/09/23 02:24:34;;;;;;;1.20;0.90;;;10.90;99.90;;;;;;4895518;29;20853;-76
2021/09/23 02:27:02;;;;;;;1.43;1.17;;;11.00;99.90;;;;;;4895145;29;20467;-76
2021/09/23 02:29:30;;;;;;;1.10;0.70;;;10.90;99.90;;;;;;4894662;29;20510;-76
2021/09/23 02:31:59;;;;;;;1.13;1.03;;;10.90;99.90;;;;;;4894712;29;20625;-76
2021/09/23 02:34:27;;;;;;;0.90;0.70;;;11.00;99.90;;;;;;4894523;29;20431;-76
2021/09/23 02:36:55;;;;;;;1.53;1.43;;;10.90;99.90;;;;;;4894565;29;20502;-76
2021/09/23 02:39:24;;;;;;;1.00;0.90;;;10.90;99.90;;;;;;4895930;29;20482;-76
2021/09/23 02:41:52;;;;;;;1.87;0.90;;;10.90;99.90;;;;;;4894687;29;20475;-76
2021/09/23 02:44:21;;;;;;;1.20;0.83;;;10.90;99.90;;;;;;4898416;29;20434;-76
2021/09/23 02:46:49;;;;;;;1.03;0.57;;;10.90;99.90;;;;;;4898347;29;20458;-76
2021/09/23 02:49:17;;;;;;;1.03;0.77;;;10.90;99.90;;;;;;4897925;29;20533;-76
2021/09/23 02:51:45;;;;;;;1.27;1.17;;;10.90;99.90;;;;;;4898321;29;20520;-76
2021/09/23 02:54:13;;;;;;;5.73;1.87;;;10.90;99.90;;;;;;4899173;29;20430;-76
2021/09/23 02:56:42;;;;;;;0.80;0.50;;;10.90;99.90;;;;;;4897910;29;20450;-76
2021/09/23 02:59:10;;;;;;;0.90;0.70;;;10.90;99.90;;;;;;4897511;29;20466;-75
2021/09/23 03:01:38;;;;;;;1.97;1.60;;;10.90;99.90;;;;;;4899162;29;20458;-76
2021/09/23 03:04:07;;;;;;;1.47;1.27;;;10.90;99.90;;;;;;4897569;29;20442;-76
2021/09/23 03:06:35;;;;;;;1.57;0.70;;;10.90;99.90;;;;;;4897633;29;20449;-76
2021/09/23 03:09:03;;;;;;;1.00;0.77;;;10.90;99.90;;;;;;4897538;29;20430;-75
2021/09/23 03:11:31;;;;;;;0.80;0.50;;;10.90;99.90;;;;;;4899131;29;20450;-76
2021/09/23 03:14:01;;;;;;;1.97;1.03;;;11.00;99.90;;;;;;4897772;29;20426;-75
2021/09/23 03:16:29;;;;;;;0.90;0.70;;;11.00;99.90;;;;;;4897934;29;20529;-76
2021/09/23 03:18:57;;;;;;;0.87;0.57;;;11.00;99.90;;;;;;4899076;29;20462;-76
2021/09/23 03:21:25;;;;;;;1.87;1.33;;;10.90;99.90;;;;;;4897531;29;20899;-76
2021/09/23 03:23:53;;;;;;;1.00;0.67;;;11.00;99.90;;;;;;4897468;29;20995;-76
2021/09/23 03:26:22;;;;;;;0.93;0.83;;;11.00;99.90;;;;;;4897756;29;20460;-76
2021/09/23 03:28:50;;;;;;;0.97;0.60;;;11.00;99.90;;;;;;4897857;29;20780;-75
2021/09/23 03:31:19;;;;;;;1.10;0.93;;;11.00;99.90;;;;;;4898564;29;20454;-75
2021/09/23 03:33:47;;;;;;;1.00;0.70;;;10.90;99.90;;;;;;4898694;29;20477;-75
2021/09/23 03:36:15;;;;;;;0.80;0.50;;;11.00;99.90;;;;;;4898819;29;20441;-75
2021/09/23 03:38:43;;;;;;;2.10;0.97;;;11.00;99.90;;;;;;4898447;29;20431;-75
2021/09/23 03:41:11;;;;;;;2.07;1.20;;;11.00;99.90;;;;;;4898999;29;20902;-75
2021/09/23 03:43:39;;;;;;;4.77;1.33;;;10.90;99.90;;;;;;4898765;29;20572;-75
2021/09/23 03:46:07;;;;;;;1.20;0.80;;;11.00;99.90;;;;;;4897468;29;20450;-76
2021/09/23 03:48:37;;;;;;;1.33;1.23;;;11.00;99.90;;;;;;4898801;29;20409;-76
2021/09/23 03:51:05;;;;;;;1.07;0.97;;;11.00;99.90;;;;;;4898439;29;20506;-75
2021/09/23 03:53:38;;;;;;;0.90;0.67;;;11.00;99.90;;;;;;4898339;29;20434;-76
2021/09/23 03:56:06;;;;;;;0.80;0.50;;;11.00;99.90;;;;;;4898710;29;20838;-76
2021/09/23 03:58:35;;;;;;;0.80;0.60;;;11.00;99.90;;;;;;4898336;29;20518;-77
2021/09/23 04:01:03;;;;;;;1.20;1.10;;;11.00;99.90;;;;;;4898053;29;20458;-76
2021/09/23 04:03:31;;;;;;;0.80;0.60;;;11.10;99.90;;;;;;4898028;29;20458;-76
2021/09/23 04:06:01;;;;;;;1.63;1.37;;;11.10;99.90;;;;;;4896720;29;20450;-76
2021/09/23 04:08:30;;;;;;;1.07;0.70;;;11.00;99.90;;;;;;4896710;29;20490;-77
2021/09/23 04:10:59;;;;;;;1.10;1.00;;;11.00;99.90;;;;;;4896719;29;20473;-76
2021/09/23 04:13:29;;;;;;;2.50;0.70;;;11.10;99.90;;;;;;4897004;29;20528;-75
2021/09/23 04:15:57;;;;;;;1.27;1.03;;;11.20;99.90;;;;;;4896735;29;20946;-77
2021/09/23 04:18:25;;;;;;;1.83;0.80;;;11.30;99.90;;;;;;4896448;29;20494;-76
2021/09/23 04:20:54;;;;;;;0.90;0.60;;;11.40;99.90;;;;;;4896274;29;20846;-75
2021/09/23 04:23:24;;;;;;;1.23;1.13;;;11.40;99.90;;;;;;4896532;29;20477;-76
2021/09/23 04:25:52;;;;;;;2.60;1.00;;;11.40;99.90;;;;;;4896472;29;20474;-76
2021/09/23 04:28:20;;;;;;;2.80;1.03;;;11.50;99.90;;;;;;4896333;29;20844;-77
2021/09/23 04:30:50;;;;;;;0.90;0.57;;;11.60;99.90;;;;;;4896339;29;20872;-76
2021/09/23 04:33:18;;;;;;;2.77;2.20;;;11.60;99.90;;;;;;4896680;29;20790;-75
2021/09/23 04:35:49;;;;;;;0.90;0.80;;;11.50;99.90;;;;;;4896727;29;20442;-76
2021/09/23 04:38:19;;;;;;;1.00;0.60;;;11.40;99.90;;;;;;4896194;29;20449;-76
2021/09/23 04:40:49;;;;;;;1.10;0.70;;;11.40;99.90;;;;;;4896366;29;20547;-77
2021/09/23 04:43:18;;;;;;;0.80;0.50;;;11.30;99.90;;;;;;4897669;29;20518;-76
2021/09/23 04:45:47;;;;;;;1.27;0.70;;;11.30;99.90;;;;;;4896033;29;20457;-76
2021/09/23 04:48:15;;;;;;;1.53;1.43;;;11.20;99.90;;;;;;4897169;29;20419;-77
2021/09/23 04:50:45;;;;;;;1.23;1.13;;;11.10;99.90;;;;;;4895831;29;20466;-76
2021/09/23 04:53:13;;;;;;;1.57;1.47;;;11.10;99.90;;;;;;4895946;29;20471;-76
2021/09/23 04:55:41;;;;;;;1.20;0.90;;;11.10;99.90;;;;;;4897381;29;20825;-76
2021/09/23 04:58:11;;;;;;;0.80;0.60;;;11.10;99.90;;;;;;4897300;29;20422;-76
2021/09/23 05:00:40;;;;;;;2.50;1.13;;;11.10;99.90;;;;;;4895988;29;20541;-77
2021/09/23 05:03:10;;;;;;;1.23;0.80;;;11.10;99.90;;;;;;4896122;29;20501;-76
2021/09/23 05:05:39;;;;;;;1.10;0.87;;;11.10;99.90;;;;;;4899290;29;20469;-76
2021/09/23 05:08:08;;;;;;;1.23;0.90;;;11.00;99.90;;;;;;4897547;29;20477;-75
2021/09/23 05:10:36;;;;;;;1.03;0.93;;;11.10;99.90;;;;;;4893734;29;20514;-76
2021/09/23 05:13:05;;;;;;;2.00;1.90;;;11.10;99.90;;;;;;4899090;29;20943;-77
2021/09/23 05:15:36;;;;;;;1.57;0.70;;;11.10;99.90;;;;;;4897985;29;20973;-77
2021/09/23 05:18:04;;;;;;;1.83;1.00;;;11.10;99.90;;;;;;4899110;29;20474;-76
2021/09/23 05:20:32;;;;;;;0.90;0.60;;;11.10;99.90;;;;;;4897380;29;20466;-76
2021/09/23 05:23:01;;;;;;;0.90;0.73;;;11.10;99.90;;;;;;4898195;29;20473;-76
2021/09/23 05:25:29;;;;;;;5.60;3.27;;;11.20;99.90;;;;;;4896805;29;20521;-76
2021/09/23 05:27:58;;;;;;;2.00;1.53;;;11.30;99.90;;;;;;4897175;29;20987;-75
2021/09/23 05:30:26;;;;;;;1.63;0.80;;;11.40;99.90;;;;;;4897099;29;20961;-76
2021/09/23 05:32:56;;;;;;;1.30;1.00;;;11.50;99.90;;;;;;4897149;29;20498;-75
2021/09/23 05:35:24;;;;;;;1.17;0.80;;;11.60;99.90;;;;;;4897394;29;20729;-76
2021/09/23 05:37:52;;;;;;;1.73;1.37;;;11.60;99.90;;;;;;4899260;29;20433;-76
2021/09/23 05:40:21;;;;;;;2.43;0.70;;;11.70;99.90;;;;;;4900709;29;20466;-76
2021/09/23 05:42:49;;;;;;;0.93;0.80;;;11.80;99.90;;;;;;4898199;29;20458;-77
2021/09/23 05:45:17;;;;;;;1.27;0.70;;;11.90;99.90;;;;;;4897944;29;20514;-77
2021/09/23 05:47:49;;;;;;;1.40;1.00;;;11.90;99.90;;;;;;4907503;29;20434;-75
2021/09/23 05:50:19;;;;;;;0.80;0.50;;;11.90;99.90;;;;;;4913828;29;20482;-77
2021/09/23 05:52:47;;;;;;;2.90;2.67;;;11.90;99.90;;;;;;4911646;29;20421;-76
2021/09/23 05:55:15;;;;;;;2.17;1.10;;;12.00;99.90;;;;;;4899181;29;20430;-76
2021/09/23 05:57:43;;;;;;;0.90;0.80;;;12.10;99.90;;;;;;4898186;29;20471;-76
2021/09/23 06:00:14;;;;;;;1.47;0.80;;;12.20;99.90;;;;;;4892802;29;20478;-75
2021/09/23 06:02:45;;;;;;;1.90;1.30;;;12.40;99.90;;;;;;4898517;29;20533;-77
2021/09/23 06:05:16;;;;;;;0.80;0.50;;;12.50;99.90;;;;;;4896124;29;20825;-76
2021/09/23 06:07:46;;;;;;;2.20;1.30;;;12.60;99.90;;;;;;4897421;29;20823;-75
2021/09/23 06:10:15;;;;;;;0.90;0.63;;;12.60;99.90;;;;;;4895881;29;20498;-76
2021/09/23 06:12:43;;;;;;;1.00;0.70;;;12.80;99.90;;;;;;4896521;29;20999;-77
2021/09/23 06:15:12;;;;;;;2.97;2.23;;;12.80;99.90;;;;;;4896434;29;20434;-77
2021/09/23 06:17:45;;;;;;;1.00;0.80;;;12.80;99.90;;;;;;4897015;29;20983;-77
2021/09/23 06:20:13;;;;;;;0.90;0.70;;;12.80;99.90;;;;;;4905591;29;20468;-76
2021/09/23 06:22:42;;;;;;;1.40;0.80;;;12.80;99.90;;;;;;4915948;29;20456;-75
2021/09/23 06:25:12;;;;;;;1.30;1.20;;;12.70;99.90;;;;;;4913880;29;20781;-74
2021/09/23 06:27:40;;;;;;;1.40;0.90;;;12.80;99.90;;;;;;4916539;29;20426;-77
2021/09/23 06:30:10;;;;;;;1.10;1.00;;;12.90;99.90;;;;;;4915667;29;20466;-76
2021/09/23 06:32:39;;;;;;;3.13;1.10;;;13.10;99.90;;;;;;4905127;29;20409;-77
2021/09/23 06:35:09;;;;;;;1.70;0.67;;;13.20;99.90;;;;;;4904638;29;20476;-77
2021/09/23 06:37:46;;;;;;;0.90;0.63;;;13.50;99.90;;;;;;4902097;29;20468;-78
2021/09/23 06:40:16;;;;;;;1.00;0.90;;;13.80;99.90;;;;;;4905367;29;20508;-76
2021/09/23 06:42:45;;;;;;;1.10;1.00;;;14.00;99.90;;;;;;4902540;29;20464;-77
2021/09/23 06:45:14;;;;;;;1.00;0.83;;;14.10;99.90;;;;;;4903618;29;20531;-77
2021/09/23 06:47:42;;;;;;;1.00;0.63;;;14.20;99.90;;;;;;4902978;29;20492;-77
2021/09/23 06:50:11;;;;;;;1.50;1.10;;;14.20;99.90;;;;;;4903146;29;20446;-78
2021/09/23 06:52:39;;;;;;;1.00;0.80;;;14.20;99.90;;;;;;4901434;29;20915;-77
2021/09/23 06:55:08;;;;;;;1.13;0.77;;;14.20;99.90;;;;;;4901359;29;20851;-77
2021/09/23 06:57:38;;;;;;;1.80;1.70;;;14.30;99.90;;;;;;4899890;29;20397;-77
2021/09/23 07:00:26;;;;;;;1.20;0.93;;;14.30;99.90;;;;;;4881677;29;20502;-77
2021/09/23 07:03:14;;;;;;;0.80;0.50;;;14.30;99.90;;;;;;4882016;29;20455;-77
2021/09/23 07:05:57;;;;;;;3.77;1.30;;;14.20;99.90;;;;;;4881643;29;20493;-75
2021/09/23 07:08:25;;;;;;;4.17;2.27;;;14.00;1.00;;;;;;4884630;29;20417;-75
2021/09/23 07:10:54;;;;;;;1.43;1.33;;;13.90;1.00;;;;;;4900618;29;20429;-77
2021/09/23 07:13:24;;;;;;;5.73;1.13;;;13.90;99.90;;;;;;4901793;29;20438;-77
2021/09/23 07:15:52;;;;;;;1.17;1.07;;;13.80;99.90;;;;;;4902257;29;20466;-76
2021/09/23 07:18:20;;;;;;;1.40;1.30;;;13.90;99.90;;;;;;4899582;29;20446;-75
2021/09/23 07:20:48;;;;;;;1.07;0.67;;;14.00;99.90;;;;;;4913895;23;20487;-76
2021/09/23 07:23:16;;;;;;;1.10;0.90;;;14.30;99.90;;;;;;4900735;29;20412;-77
2021/09/23 07:25:45;;;;;;;2.60;2.07;;;14.60;99.90;;;;;;4900598;29;20538;-76
2021/09/23 07:28:16;;;;;;;2.10;1.80;;;15.00;99.90;;;;;;4899984;29;20483;-76
2021/09/23 07:30:45;;;;;;;1.10;0.93;;;15.10;99.90;;;;;;4899668;29;20470;-77
2021/09/23 07:33:13;;;;;;;1.43;1.07;;;15.20;99.90;;;;;;4892620;29;20451;-76
2021/09/23 07:35:41;;;;;;;1.83;1.73;;;15.30;99.90;;;;;;4899448;29;21006;-77
2021/09/23 07:38:10;;;;;;;1.73;1.20;;;15.50;99.90;;;;;;4900200;29;20430;-76
2021/09/23 07:40:38;;;;;;;1.23;0.97;;;15.60;99.90;;;;;;4898955;29;20473;-76
2021/09/23 07:43:06;;;;;;;3.77;0.90;;;15.60;99.90;;;;;;4900087;29;21005;-74
2021/09/23 07:45:34;;;;;;;1.50;0.93;;;15.70;99.90;;;;;;4898965;29;20546;-74
2021/09/23 07:48:05;;;;;;;4.30;4.00;;;15.80;99.90;;;;;;4887959;29;20446;-77
2021/09/23 07:50:33;;;;;;;1.50;0.70;;;16.00;99.90;;;;;;4882461;29;20449;-77
2021/09/23 07:53:01;;;;;;;1.50;0.90;;;16.20;99.90;;;;;;4882496;29;20417;-77
2021/09/23 07:55:29;;;;;;;0.90;0.50;;;16.40;99.90;;;;;;4884204;29;20402;-77
2021/09/23 07:57:57;;;;;;;5.77;1.73;;;16.70;99.90;;;;;;4882059;29;20491;-77
2021/09/23 08:00:26;;;;;;;1.77;1.67;;;17.00;99.90;;;;;;4879241;29;20464;-75
2021/09/23 08:02:54;;;;;;;2.00;1.77;;;17.30;99.90;;;;;;4879873;29;20469;-74
2021/09/23 08:05:28;;;;;;;3.00;1.63;;;17.40;99.90;;;;;;4879690;29;20567;-74
2021/09/23 08:07:57;;;;;;;2.00;1.33;;;17.60;99.90;;;;;;4878839;29;20451;-74
2021/09/23 08:10:25;;;;;;;1.50;1.40;;;17.80;99.90;;;;;;4878971;29;20449;-75
2021/09/23 08:12:53;;;;;;;2.57;1.80;;;17.80;99.90;;;;;;4878932;29;20414;-75
2021/09/23 08:15:22;;;;;;;0.97;0.80;;;17.70;99.90;;;;;;4878824;29;20436;-75
2021/09/23 08:18:06;;;;;;;2.87;2.60;;;17.80;99.90;;;;;;4878597;29;20473;-75
2021/09/23 08:20:51;;;;;;;3.80;1.83;;;17.90;99.90;;;;;;4878330;29;20490;-75
2021/09/23 08:23:19;;;;;;;2.30;1.43;;;17.90;99.90;;;;;;4878541;29;20466;-74
2021/09/23 08:25:49;;;;;;;1.30;0.60;;;17.90;99.90;;;;;;4878984;29;20446;-75
2021/09/23 08:28:18;;;;;;;1.13;1.03;;;17.70;99.90;;;;;;4878760;29;20835;-73
2021/09/23 08:30:46;;;;;;;1.47;1.37;;;17.60;99.90;;;;;;4878789;29;20442;-75
2021/09/23 08:33:14;;;;;;;1.43;1.13;;;17.60;99.90;;;;;;4879084;29;20454;-74
2021/09/23 08:35:43;;;;;;;1.10;0.80;;;17.60;99.90;;;;;;4879364;29;20412;-74
2021/09/23 08:38:12;;;;;;;6.10;1.97;;;17.80;99.90;;;;;;4879621;29;20410;-74
2021/09/23 08:40:45;;;;;;;2.40;2.20;;;17.80;99.90;;;;;;4877909;29;20566;-73
2021/09/23 08:43:14;;;;;;;0.90;0.60;;;17.70;99.90;;;;;;4878227;29;20414;-75
2021/09/23 08:45:42;;;;;;;1.33;1.23;;;17.70;99.90;;;;;;4878927;29;20479;-75
2021/09/23 08:48:11;;;;;;;3.80;2.77;;;17.70;99.90;;;;;;4879701;29;20391;-74
2021/09/23 08:50:39;;;;;;;1.13;0.67;;;17.60;99.90;;;;;;4879063;29;20466;-75
2021/09/23 08:53:25;;;;;;;3.67;1.30;;;17.50;99.90;;;;;;4878192;29;20526;-75
2021/09/23 08:55:53;;;;;;;0.90;0.50;;;17.50;99.90;;;;;;4878717;29;20414;-74
2021/09/23 08:58:22;;;;;;;3.17;2.73;;;17.20;99.90;;;;;;4878605;29;20456;-73
2021/09/23 09:01:04;;;;;;;2.23;2.03;;;17.10;99.90;;;;;;4878915;29;21077;-75
2021/09/23 09:03:37;;;;;;;1.43;1.07;;;17.10;99.90;;;;;;4879249;29;20518;-74
2021/09/23 09:06:36;;;;;;;5.80;3.10;;;17.10;99.90;;;;;;4880369;29;20478;-75
2021/09/23 09:09:24;;;;;;;0.97;0.70;;;17.40;99.90;;;;;;4880148;29;20945;-75
2021/09/23 09:12:13;;;;;;;1.73;1.30;;;17.70;99.90;;;;;;4885100;29;21017;-75
2021/09/23 09:14:43;;;;;;;1.00;0.63;;;18.10;99.90;;;;;;4897912;29;20397;-75
2021/09/23 09:17:12;;;;;;;1.77;0.80;;;18.20;99.90;;;;;;4896377;29;20438;-73
2021/09/23 09:19:44;;;;;;;6.27;2.80;;;18.30;99.90;;;;;;4896461;29;20473;-74
2021/09/23 09:22:15;;;;;;;1.67;1.57;;;18.30;99.90;;;;;;4896230;29;20456;-75
2021/09/23 09:24:53;;;;;;;1.00;0.90;;;18.50;99.90;;;;;;4897528;29;20441;-75
2021/09/23 09:27:33;;;;;;;1.67;0.70;;;18.40;99.90;;;;;;4898636;29;20440;-75
2021/09/23 09:30:08;;;;;;;1.20;0.57;;;18.60;99.90;;;;;;4897474;29;20397;-76
2021/09/23 09:32:38;;;;;;;1.07;0.70;;;18.80;99.90;;;;;;4865613;29;20481;-75
2021/09/23 09:35:09;;;;;;;1.17;0.97;;;19.00;99.90;;;;;;4878918;29;20431;-75
2021/09/23 09:37:40;;;;;;;1.53;1.43;;;19.20;99.90;;;;;;4877427;29;20459;-75
2021/09/23 09:40:12;;;;;;;1.23;1.10;;;19.30;99.90;;;;;;4871411;29;20497;-74
2021/09/23 09:42:43;;;;;;;1.17;0.83;;;19.60;99.90;;;;;;4861096;29;20448;-75
2021/09/23 09:45:18;;;;;;;1.20;0.70;;;19.70;99.90;;;;;;4874569;29;20423;-75
2021/09/23 09:47:55;;;;;;;2.77;1.10;;;19.80;99.90;;;;;;4874853;29;20420;-74
2021/09/23 09:50:26;;;;;;;1.27;0.80;;;19.80;99.90;;;;;;4878561;29;20425;-75
2021/09/23 09:52:57;;;;;;;1.40;1.30;;;19.90;99.90;;;;;;4877466;29;20428;-75
2021/09/23 09:55:30;;;;;;;1.10;0.70;;;20.00;99.90;;;;;;4877118;29;20479;-73
2021/09/23 09:57:59;;;;;;;1.33;0.63;;;20.00;99.90;;;;;;4877249;29;20470;-74
2021/09/23 10:00:29;;;;;;;1.20;0.90;;;19.80;99.90;;;;;;4877462;29;20464;-75
2021/09/23 10:02:59;;;;;;;0.90;0.50;;;19.60;99.90;;;;;;4877598;29;21056;-74
2021/09/23 10:05:35;;;;;;;1.67;0.90;;;19.80;99.90;;;;;;4877640;29;20954;-73
2021/09/23 10:08:07;;;;;;;1.63;0.90;;;20.00;99.90;;;;;;4878331;29;20429;-74
2021/09/23 10:10:38;;;;;;;1.73;1.33;;;20.20;99.90;;;;;;4877991;29;20885;-74
2021/09/23 10:13:09;;;;;;;1.30;0.77;;;20.50;99.90;;;;;;4877956;29;20859;-74
2021/09/23 10:15:38;;;;;;;1.20;0.80;;;20.80;99.90;;;;;;4880075;29;20414;-74
2021/09/23 10:18:07;;;;;;;1.53;0.60;;;21.10;99.90;;;;;;4884931;29;20414;-74
2021/09/23 10:20:41;;;;;;;1.10;0.60;;;21.20;99.90;;;;;;4888153;29;20973;-74
2021/09/23 10:23:12;;;;;;;0.90;0.50;;;20.90;99.90;;;;;;4886827;29;20447;-75
2021/09/23 10:25:46;;;;;;;1.87;1.27;;;20.70;99.90;;;;;;4886414;29;20420;-75
2021/09/23 10:28:16;;;;;;;1.47;0.90;;;20.40;99.90;;;;;;4886076;29;20413;-76
2021/09/23 10:30:45;;;;;;;2.80;1.73;;;20.20;99.90;;;;;;4884251;29;20459;-75
2021/09/23 10:33:18;;;;;;;1.53;0.60;;;20.00;99.90;;;;;;4885522;29;20410;-75
2021/09/23 10:35:49;;;;;;;1.40;1.17;;;19.90;99.90;;;;;;4885288;29;20425;-74
2021/09/23 10:38:25;;;;;;;1.30;0.67;;;19.90;99.90;;;;;;4881526;29;20456;-74
2021/09/23 10:40:54;;;;;;;2.17;0.80;;;19.90;99.90;;;;;;4887109;29;20870;-74
2021/09/23 10:43:25;;;;;;;1.07;0.67;;;20.00;99.90;;;;;;4897736;29;20421;-74
2021/09/23 10:45:58;;;;;;;2.27;2.07;;;19.90;99.90;;;;;;4899450;29;20439;-75
2021/09/23 10:48:34;;;;;;;1.53;1.43;;;20.00;99.90;;;;;;4883512;29;20428;-75
2021/09/23 10:51:05;;;;;;;1.30;0.87;;;20.00;99.90;;;;;;4877478;29;20450;-74
2021/09/23 10:53:36;;;;;;;1.00;0.67;;;20.00;99.90;;;;;;4875688;29;20454;-75
2021/09/23 10:56:20;;;;;;;1.97;1.43;;;19.90;99.90;;;;;;4876525;29;20981;-75
2021/09/23 10:58:52;;;;;;;1.40;1.30;;;20.20;99.90;;;;;;4876860;29;20450;-75
2021/09/23 11:01:24;;;;;;;1.40;1.10;;;20.40;99.90;;;;;;4878179;29;20504;-76
2021/09/23 11:03:55;;;;;;;1.43;1.33;;;20.60;99.90;;;;;;4879209;29;20406;-75
2021/09/23 11:06:34;;;;;;;1.23;0.97;;;20.70;99.90;;;;;;4880143;29;20505;-75
2021/09/23 11:09:18;;;;;;;1.37;1.27;;;20.80;99.90;;;;;;4881016;29;20441;-75
2021/09/23 11:11:56;;;;;;;2.70;1.90;;;20.90;99.90;;;;;;4872249;29;20435;-75
2021/09/23 11:14:27;;;;;;;1.67;0.77;;;20.90;99.90;;;;;;4893989;29;20937;-76
2021/09/23 11:16:58;;;;;;;1.10;0.80;;;20.80;99.90;;;;;;4898301;29;20413;-74
2021/09/23 11:19:27;;;;;;;1.13;0.87;;;20.80;99.90;;;;;;4898664;29;20499;-75
2021/09/23 11:21:57;;;;;;;1.67;0.80;;;20.90;99.90;;;;;;4898661;29;20470;-76
2021/09/23 11:24:27;;;;;;;1.00;0.70;;;20.70;99.90;;;;;;4898886;29;20480;-75
2021/09/23 11:27:00;;;;;;;1.47;1.03;;;20.80;99.90;;;;;;4898626;29;20473;-76
2021/09/23 11:29:33;;;;;;;2.03;0.70;;;20.80;99.90;;;;;;4899713;29;20457;-76
2021/09/23 11:32:01;;;;;;;1.10;0.60;;;20.90;99.90;;;;;;4899760;29;20441;-76
2021/09/23 11:34:34;;;;;;;1.10;0.57;;;20.80;99.90;;;;;;4902113;29;20476;-77
2021/09/23 11:37:05;;;;;;;0.90;0.40;;;20.80;99.90;;;;;;4902235;29;20420;-76
2021/09/23 11:39:47;;;;;;;0.93;0.50;;;20.60;99.90;;;;;;4887616;29;20443;-75
2021/09/23 11:42:19;;;;;;;1.33;1.00;;;20.60;99.90;;;;;;4888519;29;20499;-75
2021/09/23 11:44:50;;;;;;;1.10;0.70;;;20.40;99.90;;;;;;4891347;29;20878;-76
2021/09/23 11:47:25;;;;;;;1.50;1.10;;;20.40;99.90;;;;;;4882941;29;20466;-76
2021/09/23 11:49:58;;;;;;;0.90;0.40;;;20.40;99.90;;;;;;4884110;29;20449;-76
2021/09/23 11:52:33;;;;;;;1.47;1.10;;;20.20;99.90;;;;;;4886254;29;20503;-76
2021/09/23 11:55:03;;;;;;;1.10;0.97;;;20.10;99.90;;;;;;4882037;29;20832;-75
2021/09/23 11:57:33;;;;;;;1.00;0.60;;;20.20;99.90;;;;;;4883194;29;20474;-78
2021/09/23 12:00:04;;;;;;;1.57;0.90;;;20.20;99.90;;;;;;4882243;29;20438;-77
2021/09/23 12:02:53;;;;;;;1.47;0.93;;;20.30;99.90;;;;;;4881605;29;20792;-77
2021/09/23 12:05:28;;;;;;;0.90;0.50;;;20.40;99.90;;;;;;4881001;29;20418;-78
2021/09/23 12:08:11;;;;;;;1.10;0.50;;;20.40;99.90;;;;;;4895334;29;20678;-78
2021/09/23 12:10:54;;;;;;;0.93;0.50;;;20.60;99.90;;;;;;4863468;29;20442;-77
2021/09/23 12:13:35;;;;;;;1.20;1.00;;;20.70;99.90;;;;;;4863461;29;20427;-78
2021/09/23 12:16:06;;;;;;;1.10;0.60;;;20.70;99.90;;;;;;4875576;29;20495;-77
2021/09/23 12:18:35;;;;;;;1.10;0.70;;;20.70;99.90;;;;;;4888564;29;20430;-77
2021/09/23 12:21:07;;;;;;;0.90;0.50;;;20.90;99.90;;;;;;4880531;29;20453;-77
2021/09/23 12:23:39;;;;;;;1.60;0.93;;;20.70;99.90;;;;;;4880043;29;20451;-76
2021/09/23 12:26:23;;;;;;;0.90;0.40;;;20.60;99.90;;;;;;4879753;29;20422;-77
2021/09/23 12:28:57;;;;;;;1.40;1.00;;;20.40;99.90;;;;;;4881989;29;20485;-78
2021/09/23 12:31:31;;;;;;;0.90;0.60;;;20.50;99.90;;;;;;4884343;29;20467;-78
2021/09/23 12:34:01;;;;;;;1.00;0.50;;;20.60;99.90;;;;;;4882581;29;20970;-78
2021/09/23 12:36:33;;;;;;;1.37;0.50;;;20.80;99.90;;;;;;4881628;29;20417;-80
2021/09/23 12:39:16;;;;;;;1.00;0.53;;;20.70;99.90;;;;;;4882904;29;20451;-76
2021/09/23 12:42:01;;;;;;;1.00;0.77;;;20.70;99.90;;;;;;4881253;29;20520;-78
2021/09/23 12:44:32;;;;;;;0.90;0.40;;;20.70;99.90;;;;;;4882307;29;20434;-78
2021/09/23 12:47:21;;;;;;;1.17;0.93;;;20.60;99.90;;;;;;4882276;29;20511;-77
2021/09/23 12:50:03;;;;;;;1.00;0.50;;;20.50;99.90;;;;;;4881751;29;20462;-78
2021/09/23 12:52:37;;;;;;;0.90;0.50;;;20.50;99.90;;;;;;4899618;29;20420;-78
2021/09/23 12:55:15;;;;;;;0.90;0.60;;;20.40;99.90;;;;;;4900112;29;20447;-78
2021/09/23 12:57:50;;;;;;;0.97;0.50;;;20.40;99.90;;;;;;4901586;29;20462;-78
2021/09/23 13:00:30;;;;;;;2.80;0.90;;;20.50;99.90;;;;;;4901183;29;20975;-78
2021/09/23 13:03:05;;;;;;;0.90;0.50;;;20.50;99.90;;;;;;4901514;29;20465;-77
2021/09/23 13:05:37;;;;;;;1.00;0.60;;;20.50;99.90;;;;;;4899811;29;20539;-77
2021/09/23 13:08:10;;;;;;;0.90;0.40;;;20.40;99.90;;;;;;4899207;29;20448;-78
2021/09/23 13:10:39;;;;;;;0.90;0.50;;;20.40;99.90;;;;;;4882084;29;20998;-78